Time;durP1;ratioP1;P1;durP2;ratioP2;P2;SDS_P1;SDS_P2;PMS_P1;PMS_P2;Temp;Humidity;BMP_temperature;BMP_pressure;BME280_temperature;BME280_humidity;BME280_pressure;Samples;Min_cycle;Max_cycle;Signal;HPM_P1;HPM_P2
2024/03/15 00:00:01;;;;;;;10.48;7.28;;;12.10;99.90;;;;;;5029714;28;20041;-66
2024/03/15 00:02:27;;;;;;;13.02;7.40;;;12.00;99.90;;;;;;4995997;28;20047;-66
2024/03/15 00:04:53;;;;;;;14.75;8.30;;;12.00;99.90;;;;;;4995721;28;20037;-66
2024/03/15 00:07:20;;;;;;;11.43;7.97;;;12.00;99.90;;;;;;5012633;28;20590;-64
2024/03/15 00:09:49;;;;;;;11.25;8.07;;;11.90;99.90;;;;;;5011827;28;20133;-66
2024/03/15 00:12:15;;;;;;;11.65;7.75;;;11.90;99.90;;;;;;5030440;28;20060;-66
2024/03/15 00:14:44;;;;;;;11.02;7.75;;;11.90;99.90;;;;;;4996586;28;20084;-66
2024/03/15 00:17:13;;;;;;;10.90;7.43;;;11.80;99.90;;;;;;4995715;28;20038;-65
2024/03/15 00:19:40;;;;;;;14.20;7.15;;;11.90;99.90;;;;;;5012109;28;20623;-66
2024/03/15 00:22:09;;;;;;;9.52;7.38;;;11.80;99.90;;;;;;4995342;28;20116;-65
2024/03/15 00:24:36;;;;;;;12.38;7.55;;;11.80;99.90;;;;;;5028733;28;20041;-66
2024/03/15 00:27:01;;;;;;;14.68;7.75;;;11.80;99.90;;;;;;5012285;28;20048;-66
2024/03/15 00:29:27;;;;;;;10.82;7.90;;;11.80;99.90;;;;;;5011485;28;20192;-66
2024/03/15 00:31:56;;;;;;;10.40;7.78;;;11.80;99.90;;;;;;5029700;28;20091;-66
2024/03/15 00:34:22;;;;;;;13.77;7.78;;;11.80;99.90;;;;;;5012377;28;20100;-64
2024/03/15 00:36:48;;;;;;;11.52;7.60;;;11.80;99.90;;;;;;5029473;28;20037;-65
2024/03/15 00:39:14;;;;;;;10.70;7.38;;;11.80;99.90;;;;;;5012102;28;20128;-64
2024/03/15 00:41:42;;;;;;;21.67;7.35;;;11.80;99.90;;;;;;5011371;28;20037;-63
2024/03/15 00:44:07;;;;;;;11.63;6.97;;;11.80;99.90;;;;;;5012018;28;20094;-66
2024/03/15 00:46:33;;;;;;;9.50;6.70;;;11.80;99.90;;;;;;5029822;28;20503;-66
2024/03/15 00:48:59;;;;;;;10.88;7.38;;;11.80;99.90;;;;;;5029746;28;20041;-63
2024/03/15 00:51:25;;;;;;;11.82;6.88;;;11.80;99.90;;;;;;4995504;28;20025;-66
2024/03/15 00:53:51;;;;;;;10.52;7.30;;;11.80;99.90;;;;;;5012020;28;20124;-66
2024/03/15 00:56:18;;;;;;;11.32;7.00;;;11.80;99.90;;;;;;5012192;28;20048;-65
2024/03/15 00:58:43;;;;;;;11.38;7.40;;;11.80;99.90;;;;;;5012209;28;20048;-65
2024/03/15 01:01:10;;;;;;;13.15;7.70;;;11.80;99.90;;;;;;5011059;28;20033;-64
2024/03/15 01:03:36;;;;;;;10.70;6.78;;;11.80;99.90;;;;;;5029460;28;20041;-64
2024/03/15 01:06:02;;;;;;;13.13;7.50;;;11.80;99.90;;;;;;5030096;28;20497;-63
2024/03/15 01:08:28;;;;;;;10.63;7.28;;;11.80;99.90;;;;;;5029398;28;20038;-67
2024/03/15 01:10:54;;;;;;;9.52;6.90;;;11.80;99.90;;;;;;5031283;28;20033;-63
2024/03/15 01:13:20;;;;;;;10.50;7.22;;;11.80;99.90;;;;;;5012604;28;20096;-64
2024/03/15 01:15:46;;;;;;;11.32;7.15;;;11.80;99.90;;;;;;5012622;28;20033;-65
2024/03/15 01:18:12;;;;;;;11.05;7.07;;;11.80;99.90;;;;;;5029856;28;20033;-64
2024/03/15 01:20:39;;;;;;;13.05;7.45;;;11.80;99.90;;;;;;4997212;28;20454;-64
2024/03/15 01:23:05;;;;;;;10.30;7.07;;;11.80;99.90;;;;;;5029163;28;20045;-63
2024/03/15 01:25:31;;;;;;;12.05;7.80;;;11.80;99.90;;;;;;5011680;28;20056;-63
2024/03/15 01:27:59;;;;;;;10.57;7.28;;;11.80;99.90;;;;;;5029495;28;20116;-63
2024/03/15 01:30:25;;;;;;;11.85;7.13;;;11.70;99.90;;;;;;5011348;28;20038;-63
2024/03/15 01:32:51;;;;;;;10.82;7.60;;;11.70;99.90;;;;;;5028265;28;20083;-63
2024/03/15 01:35:17;;;;;;;12.13;7.43;;;11.70;99.90;;;;;;5006282;28;20041;-64
2024/03/15 01:37:45;;;;;;;13.63;7.57;;;11.60;99.90;;;;;;5032951;28;20143;-63
2024/03/15 01:40:11;;;;;;;13.95;7.70;;;11.70;99.90;;;;;;5015559;28;20041;-64
2024/03/15 01:42:37;;;;;;;12.38;7.35;;;11.60;99.90;;;;;;4998412;28;20045;-64
2024/03/15 01:45:04;;;;;;;9.70;7.70;;;11.60;99.90;;;;;;5033597;28;20033;-70
2024/03/15 01:47:30;;;;;;;11.52;7.60;;;11.60;99.90;;;;;;5033321;28;20049;-64
2024/03/15 01:49:57;;;;;;;12.13;8.00;;;11.60;99.90;;;;;;5014290;28;20042;-64
2024/03/15 01:52:24;;;;;;;9.18;7.20;;;11.60;99.90;;;;;;5014345;28;20045;-65
2024/03/15 01:54:51;;;;;;;12.70;7.55;;;11.60;99.90;;;;;;5014960;28;20037;-64
2024/03/15 01:57:18;;;;;;;12.13;7.90;;;11.70;99.90;;;;;;4998323;28;20049;-64
2024/03/15 01:59:44;;;;;;;13.18;7.75;;;11.70;99.90;;;;;;5014496;28;20059;-64
2024/03/15 02:02:10;;;;;;;10.90;8.02;;;11.70;99.90;;;;;;5032252;28;20513;-64
2024/03/15 02:04:37;;;;;;;12.63;7.65;;;11.70;99.90;;;;;;5032506;28;20038;-64
2024/03/15 02:07:03;;;;;;;13.57;7.95;;;11.80;99.90;;;;;;5015238;28;20048;-69
2024/03/15 02:09:28;;;;;;;13.07;7.25;;;11.80;99.90;;;;;;5032003;28;20134;-68
2024/03/15 02:11:54;;;;;;;10.68;7.80;;;11.70;99.90;;;;;;5032044;28;20061;-64
2024/03/15 02:14:21;;;;;;;12.43;7.80;;;11.80;99.90;;;;;;5032569;28;20041;-64
2024/03/15 02:16:46;;;;;;;10.60;7.45;;;11.80;99.90;;;;;;5031440;28;20678;-63
2024/03/15 02:19:12;;;;;;;11.30;7.82;;;11.80;99.90;;;;;;5031895;28;20042;-65
2024/03/15 02:21:38;;;;;;;11.48;7.70;;;11.80;99.90;;;;;;5032174;28;20037;-65
2024/03/15 02:24:05;;;;;;;12.55;8.40;;;11.90;99.90;;;;;;5030883;28;20401;-65
2024/03/15 02:26:32;;;;;;;10.80;7.25;;;11.90;99.90;;;;;;5036788;28;20076;-67
2024/03/15 02:28:58;;;;;;;12.15;7.68;;;11.90;99.90;;;;;;5029852;28;20041;-66
2024/03/15 02:31:24;;;;;;;14.02;8.50;;;11.90;99.90;;;;;;5013034;28;20081;-65
2024/03/15 02:33:50;;;;;;;12.02;7.85;;;11.90;99.90;;;;;;5015129;28;20045;-66
2024/03/15 02:36:16;;;;;;;12.15;8.25;;;11.90;99.90;;;;;;5030590;28;20060;-66
2024/03/15 02:38:42;;;;;;;12.10;7.72;;;11.90;99.90;;;;;;5031080;28;20136;-66
2024/03/15 02:41:09;;;;;;;11.23;7.70;;;11.90;99.90;;;;;;5012092;28;20486;-66
2024/03/15 02:43:36;;;;;;;12.23;8.20;;;11.90;99.90;;;;;;5030517;28;20033;-65
2024/03/15 02:46:01;;;;;;;12.07;8.25;;;11.90;99.90;;;;;;5029436;28;20049;-65
2024/03/15 02:48:27;;;;;;;12.45;8.23;;;11.90;99.90;;;;;;5029966;28;20041;-65
2024/03/15 02:50:53;;;;;;;12.27;7.75;;;11.90;99.90;;;;;;5030430;28;20038;-65
2024/03/15 02:53:19;;;;;;;12.02;8.73;;;11.90;99.90;;;;;;5012699;28;20482;-65
2024/03/15 02:55:45;;;;;;;11.85;8.63;;;11.90;99.90;;;;;;5030876;28;20080;-66
2024/03/15 02:58:11;;;;;;;11.65;8.30;;;11.90;99.90;;;;;;5012419;28;20076;-65
2024/03/15 03:00:37;;;;;;;12.80;7.95;;;11.90;99.90;;;;;;5011602;28;20179;-66
2024/03/15 03:03:05;;;;;;;14.90;8.35;;;11.90;99.90;;;;;;5029440;28;20379;-67
2024/03/15 03:05:31;;;;;;;13.55;8.25;;;11.90;99.90;;;;;;5030494;28;20049;-65
2024/03/15 03:07:56;;;;;;;13.30;8.43;;;11.90;99.90;;;;;;5030351;28;20398;-66
2024/03/15 03:10:22;;;;;;;15.75;8.95;;;11.90;99.90;;;;;;5012449;28;20089;-66
2024/03/15 03:12:48;;;;;;;12.32;7.80;;;11.90;99.90;;;;;;5030266;28;20616;-66
2024/03/15 03:15:14;;;;;;;13.48;8.70;;;12.00;99.90;;;;;;5030012;28;20033;-66
2024/03/15 03:17:40;;;;;;;10.95;8.02;;;12.00;99.90;;;;;;5030528;28;20175;-66
2024/03/15 03:20:18;;;;;;;11.57;8.50;;;11.90;99.90;;;;;;5029584;28;20119;-65
2024/03/15 03:22:44;;;;;;;12.73;8.35;;;11.90;99.90;;;;;;4995820;28;232886;-66
2024/03/15 03:25:10;;;;;;;15.32;8.95;;;11.90;99.90;;;;;;5004817;28;20050;-65
2024/03/15 03:27:36;;;;;;;10.95;8.05;;;11.90;99.90;;;;;;5013562;28;20148;-65
2024/03/15 03:30:02;;;;;;;13.88;8.43;;;12.00;99.90;;;;;;5030674;28;20053;-66
2024/03/15 03:32:28;;;;;;;14.75;8.48;;;11.90;99.90;;;;;;5030076;28;20091;-66
2024/03/15 03:34:54;;;;;;;12.45;8.45;;;11.90;99.90;;;;;;5031263;28;20041;-66
2024/03/15 03:37:19;;;;;;;12.40;8.32;;;11.90;99.90;;;;;;5012626;28;20041;-67
2024/03/15 03:39:46;;;;;;;14.68;8.98;;;11.90;99.90;;;;;;5030662;28;20402;-66
2024/03/15 03:42:12;;;;;;;11.57;8.85;;;11.90;99.90;;;;;;5026111;28;20041;-66
2024/03/15 03:44:38;;;;;;;15.65;8.77;;;11.90;99.90;;;;;;5011796;28;20045;-66
2024/03/15 03:47:04;;;;;;;13.73;8.50;;;11.80;99.90;;;;;;5010999;28;20037;-66
2024/03/15 03:49:29;;;;;;;16.23;9.35;;;11.80;99.90;;;;;;5012186;28;20041;-66
2024/03/15 03:51:57;;;;;;;13.13;8.73;;;11.80;99.90;;;;;;5012522;28;20048;-67
2024/03/15 03:54:24;;;;;;;14.57;9.35;;;11.80;99.90;;;;;;5030236;28;20629;-66
2024/03/15 03:56:50;;;;;;;12.60;8.23;;;11.80;99.90;;;;;;5013323;28;20038;-67
2024/03/15 03:59:16;;;;;;;14.85;8.75;;;11.80;99.90;;;;;;5029569;28;20033;-67
2024/03/15 04:01:42;;;;;;;16.23;9.30;;;11.80;99.90;;;;;;5029569;28;20501;-68
2024/03/15 04:04:08;;;;;;;16.13;9.85;;;11.80;99.90;;;;;;5012846;28;20067;-68
2024/03/15 04:06:34;;;;;;;15.73;9.73;;;11.80;99.90;;;;;;5012105;28;20080;-68
2024/03/15 04:09:00;;;;;;;14.82;9.00;;;11.80;99.90;;;;;;5012113;28;20291;-69
2024/03/15 04:11:26;;;;;;;12.43;8.98;;;11.70;99.90;;;;;;5028997;28;20140;-70
2024/03/15 04:13:54;;;;;;;14.52;9.60;;;11.70;99.90;;;;;;5030603;28;20124;-69
2024/03/15 04:16:21;;;;;;;14.35;9.30;;;11.70;99.90;;;;;;5011507;28;20041;-69
2024/03/15 04:18:47;;;;;;;17.70;9.95;;;11.70;99.90;;;;;;5012648;28;20045;-69
2024/03/15 04:21:13;;;;;;;14.80;9.98;;;11.70;99.90;;;;;;5029049;28;20045;-69
2024/03/15 04:23:39;;;;;;;15.02;9.80;;;11.60;99.90;;;;;;5029511;28;20033;-69
2024/03/15 04:26:05;;;;;;;15.30;9.80;;;11.60;99.90;;;;;;5029981;28;20064;-69
2024/03/15 04:28:32;;;;;;;17.40;10.10;;;11.60;99.90;;;;;;5029472;28;20037;-68
2024/03/15 04:30:58;;;;;;;16.30;10.23;;;11.60;99.90;;;;;;5011365;28;20129;-68
2024/03/15 04:33:23;;;;;;;17.33;10.65;;;11.60;99.90;;;;;;5028579;28;20128;-68
2024/03/15 04:35:52;;;;;;;14.90;10.15;;;11.60;99.90;;;;;;5029967;28;20091;-68
2024/03/15 04:38:18;;;;;;;16.55;11.20;;;11.60;99.90;;;;;;5028828;28;20136;-68
2024/03/15 04:40:45;;;;;;;18.10;11.57;;;11.60;99.90;;;;;;5029064;28;20124;-68
2024/03/15 04:43:10;;;;;;;18.58;11.10;;;11.50;99.90;;;;;;5028986;28;20116;-68
2024/03/15 04:45:36;;;;;;;19.63;11.65;;;11.60;99.90;;;;;;5029018;28;20172;-69
2024/03/15 04:48:02;;;;;;;17.85;10.77;;;11.60;99.90;;;;;;5029390;28;20099;-69
2024/03/15 04:50:28;;;;;;;18.17;11.93;;;11.60;99.90;;;;;;5025434;28;20112;-69
2024/03/15 04:52:54;;;;;;;18.50;11.68;;;11.60;99.90;;;;;;5028319;28;20045;-69
2024/03/15 04:55:22;;;;;;;20.00;12.15;;;11.60;99.90;;;;;;5029555;28;20037;-69
2024/03/15 04:57:48;;;;;;;19.75;12.68;;;11.60;99.90;;;;;;5029170;28;20051;-68
2024/03/15 05:00:20;;;;;;;20.27;11.70;;;11.70;99.90;;;;;;5027623;28;20029;-69
2024/03/15 05:02:49;;;;;;;20.55;12.25;;;11.60;99.90;;;;;;5028494;28;20038;-69
2024/03/15 05:05:15;;;;;;;19.92;12.93;;;11.60;99.90;;;;;;5029834;28;20085;-68
2024/03/15 05:07:42;;;;;;;17.65;12.35;;;11.60;99.90;;;;;;5029569;28;20038;-68
2024/03/15 05:10:11;;;;;;;17.00;12.35;;;11.60;99.90;;;;;;5047803;23;20041;-64
2024/03/15 05:12:38;;;;;;;19.17;12.80;;;11.60;99.90;;;;;;5046342;28;20501;-66
2024/03/15 05:15:04;;;;;;;22.60;13.05;;;11.60;99.90;;;;;;5052932;28;20077;-66
2024/03/15 05:17:30;;;;;;;20.60;12.90;;;11.60;99.90;;;;;;5051403;28;20049;-66
2024/03/15 05:19:56;;;;;;;19.08;12.45;;;11.60;99.90;;;;;;5046870;28;20040;-66
2024/03/15 05:22:24;;;;;;;19.85;13.95;;;11.70;99.90;;;;;;5034293;28;20478;-66
2024/03/15 05:24:50;;;;;;;18.08;12.90;;;11.70;99.90;;;;;;5033543;28;20045;-66
2024/03/15 05:27:16;;;;;;;21.30;13.85;;;11.70;99.90;;;;;;5032636;28;20527;-66
2024/03/15 05:29:41;;;;;;;23.17;13.43;;;11.70;99.90;;;;;;5033372;28;20041;-66
2024/03/15 05:32:07;;;;;;;20.48;13.80;;;11.70;99.90;;;;;;5033227;28;20049;-66
2024/03/15 05:34:33;;;;;;;20.85;13.05;;;11.70;99.90;;;;;;5033649;28;20110;-66
2024/03/15 05:36:59;;;;;;;22.58;13.48;;;11.70;99.90;;;;;;5032242;28;20048;-66
2024/03/15 05:39:28;;;;;;;20.60;12.50;;;11.70;99.90;;;;;;5032741;28;20124;-66
2024/03/15 05:41:54;;;;;;;18.77;13.23;;;11.70;99.90;;;;;;5033142;28;20425;-66
2024/03/15 05:44:20;;;;;;;20.20;12.48;;;11.80;99.90;;;;;;5033016;28;20040;-66
2024/03/15 05:46:45;;;;;;;21.80;13.60;;;11.70;99.90;;;;;;5031028;28;20464;-66
2024/03/15 05:49:12;;;;;;;20.95;13.45;;;11.70;99.90;;;;;;5029783;28;20034;-66
2024/03/15 05:51:38;;;;;;;22.45;13.32;;;11.80;99.90;;;;;;5032946;28;20044;-66
2024/03/15 05:54:04;;;;;;;20.50;13.18;;;11.70;99.90;;;;;;5032463;28;20041;-66
2024/03/15 05:56:29;;;;;;;20.48;12.75;;;11.70;99.90;;;;;;5032585;28;20103;-66
2024/03/15 05:58:55;;;;;;;17.75;12.10;;;11.70;99.90;;;;;;5032857;28;20037;-66
2024/03/15 06:01:21;;;;;;;20.25;12.82;;;11.70;99.90;;;;;;5030418;28;20382;-66
2024/03/15 06:03:47;;;;;;;17.60;11.98;;;11.70;99.90;;;;;;5032993;28;20049;-66
2024/03/15 06:06:12;;;;;;;16.42;11.40;;;11.70;99.90;;;;;;5013607;28;20034;-66
2024/03/15 06:08:38;;;;;;;17.23;12.25;;;11.80;99.90;;;;;;5032050;28;20033;-65
2024/03/15 06:11:04;;;;;;;20.20;12.18;;;11.70;99.90;;;;;;5030752;28;20133;-65
2024/03/15 06:13:30;;;;;;;20.10;12.38;;;11.80;99.90;;;;;;5030738;28;20034;-65
2024/03/15 06:15:55;;;;;;;20.17;12.77;;;11.80;99.90;;;;;;5031852;28;20487;-65
2024/03/15 06:18:21;;;;;;;18.95;12.38;;;11.80;99.90;;;;;;5032573;28;20048;-65
2024/03/15 06:20:47;;;;;;;18.83;12.23;;;11.80;99.90;;;;;;5030167;28;20057;-65
2024/03/15 06:23:14;;;;;;;19.40;12.05;;;11.80;99.90;;;;;;5031039;28;20029;-65
2024/03/15 06:25:40;;;;;;;20.40;12.27;;;11.80;99.90;;;;;;5032068;28;20083;-65
2024/03/15 06:28:08;;;;;;;20.40;12.73;;;11.80;99.90;;;;;;5031619;28;20069;-66
2024/03/15 06:30:34;;;;;;;19.58;12.20;;;11.80;99.90;;;;;;5032083;28;20103;-65
2024/03/15 06:33:02;;;;;;;19.85;12.70;;;11.80;99.90;;;;;;5031850;28;20041;-66
2024/03/15 06:35:27;;;;;;;20.85;12.52;;;11.80;99.90;;;;;;5031822;28;20046;-66
2024/03/15 06:37:57;;;;;;;21.90;12.80;;;11.90;99.90;;;;;;5031667;28;20095;-65
2024/03/15 06:40:42;;;;;;;19.13;12.80;;;11.90;99.90;;;;;;5027003;28;20057;-66
2024/03/15 06:43:25;;;;;;;18.40;12.23;;;11.90;99.90;;;;;;5031103;28;20120;-66
2024/03/15 06:48:22;;;;;;;18.08;11.43;;;11.90;99.90;;;;;;5029661;28;19924;-66
2024/03/15 06:50:50;;;;;;;17.87;11.77;;;11.90;99.90;;;;;;5026914;28;20510;-65
2024/03/15 06:53:17;;;;;;;19.30;11.85;;;11.90;99.90;;;;;;5030697;28;20311;-66
2024/03/15 06:55:44;;;;;;;17.85;11.80;;;11.90;99.90;;;;;;5031375;28;20402;-65
2024/03/15 06:58:11;;;;;;;18.23;11.57;;;11.90;99.90;;;;;;5032158;28;20045;-66
2024/03/15 07:00:37;;;;;;;19.98;12.18;;;12.00;99.90;;;;;;5029046;28;20516;-66
2024/03/15 07:03:04;;;;;;;18.15;11.45;;;11.90;99.90;;;;;;5021182;28;20041;-66
2024/03/15 07:05:32;;;;;;;19.48;11.77;;;12.00;99.90;;;;;;5030784;28;20092;-66
2024/03/15 07:07:58;;;;;;;20.90;11.27;;;12.00;99.90;;;;;;5012878;28;20613;-66
2024/03/15 07:10:23;;;;;;;19.02;11.65;;;12.00;99.90;;;;;;5030686;28;20129;-66
2024/03/15 07:12:49;;;;;;;24.65;11.63;;;12.00;99.90;;;;;;5030968;28;20405;-66
2024/03/15 07:15:15;;;;;;;21.00;11.68;;;12.00;99.90;;;;;;5031213;28;20040;-65
2024/03/15 07:17:43;;;;;;;16.25;10.82;;;12.00;99.90;;;;;;5031172;28;20041;-66
2024/03/15 07:20:12;;;;;;;18.85;11.15;;;12.00;99.90;;;;;;5024699;28;20034;-66
2024/03/15 07:22:40;;;;;;;15.43;11.18;;;12.00;99.90;;;;;;5030636;28;20116;-66
2024/03/15 07:25:06;;;;;;;14.93;10.15;;;12.00;99.90;;;;;;5030984;28;20120;-66
2024/03/15 07:27:32;;;;;;;22.25;11.10;;;12.00;99.90;;;;;;5030570;28;20033;-66
2024/03/15 07:30:01;;;;;;;15.40;10.80;;;11.90;99.90;;;;;;5011127;28;20234;-65
2024/03/15 07:32:30;;;;;;;16.88;11.85;;;12.00;99.90;;;;;;5030276;28;20034;-65
2024/03/15 07:34:55;;;;;;;18.90;11.57;;;12.00;99.90;;;;;;5029917;28;20044;-66
2024/03/15 07:37:22;;;;;;;17.67;11.38;;;12.00;99.90;;;;;;5010581;28;20037;-65
2024/03/15 07:39:48;;;;;;;17.70;11.32;;;11.90;99.90;;;;;;5011312;28;20048;-65
2024/03/15 07:42:14;;;;;;;19.23;12.35;;;12.00;99.90;;;;;;5026134;28;20041;-66
2024/03/15 07:44:40;;;;;;;21.88;12.55;;;12.00;99.90;;;;;;5024557;28;20057;-65
2024/03/15 07:47:06;;;;;;;17.90;12.15;;;12.00;99.90;;;;;;5030382;28;20041;-66
2024/03/15 07:49:33;;;;;;;20.73;12.13;;;12.10;99.90;;;;;;5024387;28;20868;-66
2024/03/15 07:51:58;;;;;;;19.98;11.98;;;12.10;99.90;;;;;;5010417;28;20077;-66
2024/03/15 07:54:25;;;;;;;19.98;12.57;;;12.10;99.90;;;;;;5029873;28;20516;-66
2024/03/15 07:56:54;;;;;;;17.02;11.82;;;12.10;99.90;;;;;;5011165;28;20486;-66
2024/03/15 07:59:20;;;;;;;16.50;11.82;;;12.20;99.90;;;;;;5023935;28;20128;-66
2024/03/15 08:01:46;;;;;;;18.75;12.60;;;12.10;99.90;;;;;;5028060;28;20037;-66
2024/03/15 08:04:14;;;;;;;17.65;12.05;;;12.20;99.90;;;;;;5028071;28;20091;-66
2024/03/15 08:06:39;;;;;;;18.55;11.48;;;12.20;99.90;;;;;;5010621;28;20486;-66
2024/03/15 08:09:06;;;;;;;18.73;11.45;;;12.30;99.90;;;;;;5030218;28;20048;-66
2024/03/15 08:11:34;;;;;;;17.52;10.75;;;12.30;99.90;;;;;;5029366;28;20075;-66
2024/03/15 08:14:05;;;;;;;15.38;10.32;;;12.20;99.90;;;;;;5029694;28;20537;-66
2024/03/15 08:16:34;;;;;;;14.55;10.38;;;12.30;99.90;;;;;;5009461;28;20045;-66
2024/03/15 08:19:06;;;;;;;13.32;9.88;;;12.40;99.90;;;;;;5028894;28;20044;-66
2024/03/15 08:21:33;;;;;;;;;;;12.40;99.90;;;;;;5009540;28;20052;-66
2024/03/15 08:24:04;;;;;;;14.80;9.98;;;12.40;99.90;;;;;;5013258;28;19924;-66
2024/03/15 08:26:33;;;;;;;17.45;9.93;;;12.50;99.90;;;;;;5026553;28;20045;-65
2024/03/15 08:29:00;;;;;;;14.65;9.52;;;12.50;99.90;;;;;;5029626;28;20052;-65
2024/03/15 08:31:26;;;;;;;15.60;9.68;;;12.50;99.90;;;;;;5025535;28;20048;-66
2024/03/15 08:33:51;;;;;;;15.43;9.48;;;12.50;99.90;;;;;;5021464;28;20037;-66
2024/03/15 08:36:17;;;;;;;20.67;9.52;;;12.60;99.90;;;;;;5022594;28;20092;-66
2024/03/15 08:38:43;;;;;;;14.00;9.25;;;12.60;99.90;;;;;;5027550;28;20033;-66
2024/03/15 08:41:10;;;;;;;16.48;9.43;;;12.60;99.90;;;;;;5004494;28;20038;-65
2024/03/15 08:43:36;;;;;;;16.25;9.77;;;12.60;99.90;;;;;;5021723;28;20034;-65
2024/03/15 08:46:02;;;;;;;15.48;10.02;;;12.60;99.90;;;;;;5001650;28;20050;-65
2024/03/15 08:48:30;;;;;;;15.70;10.15;;;12.60;99.90;;;;;;5028765;28;20033;-65
2024/03/15 08:50:56;;;;;;;16.70;9.77;;;12.60;99.90;;;;;;5024262;28;20045;-65
2024/03/15 08:53:24;;;;;;;14.55;9.82;;;12.70;99.90;;;;;;5027231;28;20030;-65
2024/03/15 08:55:51;;;;;;;14.40;9.88;;;12.60;99.90;;;;;;5027811;28;20061;-65
2024/03/15 08:58:17;;;;;;;16.85;10.02;;;12.70;99.90;;;;;;5010957;28;20060;-65
2024/03/15 09:00:43;;;;;;;15.68;10.05;;;12.70;99.90;;;;;;5029087;28;20116;-65
2024/03/15 09:03:11;;;;;;;14.85;9.73;;;12.80;99.90;;;;;;5029621;28;20045;-65
2024/03/15 09:05:38;;;;;;;14.90;9.63;;;12.80;99.90;;;;;;5028849;28;20029;-65
2024/03/15 09:08:06;;;;;;;15.63;9.45;;;12.80;99.90;;;;;;5029906;28;20571;-65
2024/03/15 09:10:33;;;;;;;14.20;9.43;;;12.80;99.90;;;;;;5010251;28;20497;-65
2024/03/15 09:12:58;;;;;;;16.52;9.02;;;12.90;99.90;;;;;;5029416;28;20053;-65
2024/03/15 09:15:26;;;;;;;14.40;9.10;;;12.90;99.90;;;;;;5011188;28;20041;-65
2024/03/15 09:17:52;;;;;;;14.65;8.48;;;13.00;99.90;;;;;;5029725;28;20103;-65
2024/03/15 09:22:47;;;;;;;16.95;8.48;;;13.00;99.90;;;;;;5029589;28;20098;-65
2024/03/15 09:25:18;;;;;;;12.88;7.57;;;13.00;99.90;;;;;;5028635;28;20454;-65
2024/03/15 09:27:53;;;;;;;11.82;7.13;;;13.10;99.90;;;;;;5029589;28;20046;-65
2024/03/15 09:31:08;;;;;;;13.90;6.50;;;13.10;99.90;;;;;;5028646;28;20525;-65
2024/03/15 09:33:15;;;;;;;11.43;5.60;;;13.20;99.90;;;;;;5014295;28;20052;-65
2024/03/15 09:35:44;;;;;;;14.38;6.70;;;13.20;99.90;;;;;;5026610;28;20037;-65
2024/03/15 09:38:14;;;;;;;12.30;5.68;;;13.20;99.90;;;;;;5030129;28;20057;-65
2024/03/15 09:40:40;;;;;;;13.68;5.30;;;13.30;99.90;;;;;;5028974;28;20045;-66
2024/03/15 09:43:11;;;;;;;9.20;4.82;;;13.30;99.90;;;;;;5029170;28;20033;-65
2024/03/15 09:45:36;;;;;;;11.02;4.57;;;13.30;99.90;;;;;;5026997;28;20071;-65
2024/03/15 09:48:05;;;;;;;12.68;4.82;;;13.50;99.90;;;;;;5023082;28;20038;-65
2024/03/15 09:50:31;;;;;;;12.57;4.78;;;13.50;99.90;;;;;;5022122;28;20052;-65
2024/03/15 09:52:57;;;;;;;10.30;4.25;;;13.50;99.90;;;;;;5025732;28;20037;-65
2024/03/15 09:55:23;;;;;;;12.18;3.90;;;13.60;99.90;;;;;;5025301;28;20052;-65
2024/03/15 09:57:50;;;;;;;11.07;4.65;;;13.50;99.90;;;;;;5030137;28;20065;-65
2024/03/15 10:00:21;;;;;;;10.38;3.80;;;13.50;99.90;;;;;;5027438;28;20034;-65
2024/03/15 10:02:48;;;;;;;11.98;3.78;;;13.50;99.90;;;;;;5028869;28;20394;-66
2024/03/15 10:05:15;;;;;;;11.52;4.20;;;13.50;99.90;;;;;;5031739;28;20046;-66
2024/03/15 10:07:41;;;;;;;7.22;3.90;;;13.50;99.90;;;;;;5008101;28;20060;-65
2024/03/15 10:10:11;;;;;;;11.45;4.15;;;13.60;99.90;;;;;;5028258;28;20045;-66
2024/03/15 10:12:39;;;;;;;10.27;4.15;;;13.60;99.90;;;;;;5024511;28;20065;-66
2024/03/15 10:15:09;;;;;;;10.57;4.10;;;13.60;99.90;;;;;;5008363;28;20521;-65
2024/03/15 10:17:36;;;;;;;8.73;3.80;;;13.60;99.90;;;;;;5031179;28;20049;-66
2024/03/15 10:20:06;;;;;;;11.40;3.97;;;13.60;99.90;;;;;;5027782;28;20156;-65
2024/03/15 10:22:32;;;;;;;8.80;3.97;;;13.50;99.90;;;;;;5006463;28;20053;-65
2024/03/15 10:24:57;;;;;;;10.95;3.85;;;13.60;99.90;;;;;;5022736;28;20038;-65
2024/03/15 10:27:23;;;;;;;11.68;3.80;;;13.70;99.90;;;;;;5026987;28;20037;-66
2024/03/15 10:29:49;;;;;;;8.70;3.95;;;13.80;99.90;;;;;;5025837;28;20034;-65
2024/03/15 10:32:15;;;;;;;10.73;3.53;;;13.80;99.90;;;;;;5028406;28;20041;-65
2024/03/15 10:34:41;;;;;;;6.78;3.83;;;13.90;99.90;;;;;;5007544;28;20449;-65
2024/03/15 10:37:11;;;;;;;10.77;3.60;;;13.80;99.90;;;;;;5031069;28;20048;-65
2024/03/15 10:39:36;;;;;;;10.77;3.40;;;13.90;99.90;;;;;;5031405;28;20033;-65
2024/03/15 10:42:04;;;;;;;10.50;3.60;;;13.90;99.90;;;;;;5029768;28;20072;-65
2024/03/15 10:44:32;;;;;;;12.98;3.50;;;13.80;99.90;;;;;;5020703;28;20041;-65
2024/03/15 10:46:58;;;;;;;9.57;3.47;;;13.80;99.90;;;;;;5026339;28;20047;-65
2024/03/15 10:49:25;;;;;;;9.52;3.67;;;13.70;99.90;;;;;;5031563;28;20041;-65
2024/03/15 10:51:51;;;;;;;10.35;3.35;;;13.70;99.90;;;;;;5031834;28;20041;-65
2024/03/15 10:54:20;;;;;;;8.18;2.70;;;13.70;99.90;;;;;;5030936;28;20116;-65
2024/03/15 10:56:47;;;;;;;7.60;3.25;;;13.70;99.90;;;;;;5026210;28;20042;-65
2024/03/15 10:59:13;;;;;;;10.15;3.83;;;13.70;99.90;;;;;;5029101;28;20151;-65
2024/03/15 11:01:40;;;;;;;12.13;3.45;;;13.90;99.90;;;;;;5029304;28;20112;-65
2024/03/15 11:04:12;;;;;;;9.57;3.90;;;14.20;99.90;;;;;;5030829;28;20044;-65
2024/03/15 11:06:44;;;;;;;10.48;3.75;;;14.50;99.90;;;;;;5032019;28;20052;-65
2024/03/15 11:09:20;;;;;;;8.90;4.20;;;14.60;99.90;;;;;;5030226;28;20075;-65
2024/03/15 11:11:58;;;;;;;11.15;3.90;;;14.70;99.90;;;;;;5026312;28;20038;-65
2024/03/15 11:14:24;;;;;;;15.18;4.60;;;14.70;99.90;;;;;;5027961;28;20549;-64
2024/03/15 11:17:00;;;;;;;9.15;3.72;;;14.60;99.90;;;;;;5029674;28;20121;-65
2024/03/15 11:19:26;;;;;;;9.45;3.90;;;14.60;99.90;;;;;;5028568;28;20249;-65
2024/03/15 11:22:04;;;;;;;9.45;3.80;;;14.50;99.90;;;;;;5011536;28;20060;-64
2024/03/15 11:24:40;;;;;;;11.48;4.40;;;14.50;99.90;;;;;;5015756;28;20037;-65
2024/03/15 11:27:05;;;;;;;10.25;4.55;;;14.40;99.90;;;;;;5019672;28;20073;-64
2024/03/15 11:29:36;;;;;;;9.60;4.30;;;14.40;99.90;;;;;;5025585;28;20061;-64
2024/03/15 11:32:02;;;;;;;9.30;4.20;;;14.30;99.90;;;;;;5027130;28;20034;-64
2024/03/15 11:34:29;;;;;;;11.27;4.40;;;14.30;99.90;;;;;;5029150;28;20457;-63
2024/03/15 11:36:55;;;;;;;12.50;4.90;;;14.30;99.90;;;;;;5028132;28;20448;-64
2024/03/15 11:39:21;;;;;;;12.77;4.60;;;14.30;99.90;;;;;;5027787;28;20121;-64
2024/03/15 11:41:46;;;;;;;10.20;4.93;;;14.30;99.90;;;;;;5028699;28;20045;-64
2024/03/15 11:44:12;;;;;;;10.98;4.38;;;14.30;99.90;;;;;;5009208;28;20042;-64
2024/03/15 11:46:40;;;;;;;10.20;4.28;;;14.30;99.90;;;;;;5023654;28;20037;-64
2024/03/15 11:49:11;;;;;;;11.85;4.63;;;14.30;99.90;;;;;;5023485;28;20103;-65
2024/03/15 11:51:39;;;;;;;11.40;4.85;;;14.30;99.90;;;;;;5026730;28;20034;-65
2024/03/15 11:54:15;;;;;;;11.27;5.05;;;14.30;99.90;;;;;;5025431;28;20099;-65
2024/03/15 11:56:43;;;;;;;14.13;4.60;;;14.30;99.90;;;;;;5017459;28;20037;-64
2024/03/15 11:59:10;;;;;;;12.63;4.63;;;14.30;99.90;;;;;;5020163;28;20048;-65
2024/03/15 12:01:36;;;;;;;13.02;4.75;;;14.20;99.90;;;;;;5019623;28;20405;-65
2024/03/15 12:04:02;;;;;;;12.77;4.28;;;14.20;99.90;;;;;;5021936;28;20038;-65
2024/03/15 12:06:29;;;;;;;8.60;4.47;;;14.10;99.90;;;;;;5015565;28;20037;-65
2024/03/15 12:09:01;;;;;;;11.93;4.50;;;14.00;99.90;;;;;;5020518;28;20069;-65
2024/03/15 12:11:27;;;;;;;;;;;13.90;99.90;;;;;;5018189;28;20118;-65
2024/03/15 12:13:57;;;;;;;11.65;4.80;;;13.80;99.90;;;;;;5023708;28;20059;-65
2024/03/15 12:16:23;;;;;;;12.27;4.82;;;13.80;99.90;;;;;;5022317;28;20037;-65
2024/03/15 12:18:50;;;;;;;11.35;4.78;;;13.80;99.90;;;;;;5017945;28;20046;-65
2024/03/15 12:21:17;;;;;;;11.43;4.68;;;13.80;99.90;;;;;;5019991;28;20056;-65
2024/03/15 12:23:43;;;;;;;12.20;4.85;;;13.70;99.90;;;;;;5018567;28;20042;-66
2024/03/15 12:26:09;;;;;;;12.43;5.00;;;13.70;99.90;;;;;;5022737;28;20047;-66
2024/03/15 12:28:35;;;;;;;13.15;5.22;;;13.70;99.90;;;;;;5015120;28;20038;-65
2024/03/15 12:31:01;;;;;;;13.80;4.72;;;13.70;99.90;;;;;;5021547;28;20046;-65
2024/03/15 12:33:26;;;;;;;13.13;4.50;;;13.80;99.90;;;;;;5044410;23;20037;-63
2024/03/15 12:35:53;;;;;;;14.10;4.50;;;13.80;99.90;;;;;;5029354;28;20056;-66
2024/03/15 12:38:21;;;;;;;13.15;4.35;;;13.80;99.90;;;;;;5025769;28;20045;-62